Sign-in with your pilot id or email, or register

ICAO: CYHZ Name / Country: Halifax International Airport / Canada
Latitude: 44.8808 Longitude: -63.5086
Total Arrivals:
Strict Standards: Non-static method AirportData::getarrflights() should not be called statically, assuming $this from incompatible context in /var/www/customers/vh-7192/web/home/phpvms/core/templates/airport_info.tpl on line 18
1
Total Departures:
Strict Standards: Non-static method AirportData::getdeptflights() should not be called statically, assuming $this from incompatible context in /var/www/customers/vh-7192/web/home/phpvms/core/templates/airport_info.tpl on line 21
1
Latest Arrival: MTATIBI (KORD-CYHZ) Tibor Berces Latest Departure: MTA11P (CYHZ-BIKF) Tibor Berces
Metar: CYHZ 172300Z 36010G15KT 15SM OVC020 09/06 A3009 RMK SC8 SLP196
More info

Charts for CYHZ


NOTAM


Warning: file_get_contents(http://api.vateud.net/notams/CYHZ.json): failed to open stream: Redirection limit reached, aborting in /var/www/customers/vh-7192/web/home/phpvms/core/common/NOTAMSData.class.php on line 18

Warning: Invalid argument supplied for foreach() in /var/www/customers/vh-7192/web/home/phpvms/core/common/NOTAMSData.class.php on line 22

Halifax International Airport